sensor_id;sensor_type;location;lat;lon;timestamp;P1;durP1;ratioP1;P2;durP2;ratioP2
65375;SDS011;51976;47.332;9.404;2023-05-07T00:01:37;4.32;;;1.05;;
65375;SDS011;51976;47.332;9.404;2023-05-07T00:04:02;1.50;;;0.90;;
65375;SDS011;51976;47.332;9.404;2023-05-07T00:06:28;1.02;;;0.80;;
65375;SDS011;51976;47.332;9.404;2023-05-07T00:08:54;1.92;;;1.30;;
65375;SDS011;51976;47.332;9.404;2023-05-07T00:11:21;3.20;;;0.90;;
65375;SDS011;51976;47.332;9.404;2023-05-07T00:13:46;4.82;;;1.40;;
65375;SDS011;51976;47.332;9.404;2023-05-07T00:16:12;3.25;;;1.67;;
65375;SDS011;51976;47.332;9.404;2023-05-07T00:18:38;3.63;;;0.82;;
65375;SDS011;51976;47.332;9.404;2023-05-07T00:21:03;2.13;;;1.08;;
65375;SDS011;51976;47.332;9.404;2023-05-07T00:23:29;3.25;;;0.82;;
65375;SDS011;51976;47.332;9.404;2023-05-07T00:25:54;2.58;;;1.02;;
65375;SDS011;51976;47.332;9.404;2023-05-07T00:28:19;2.22;;;0.98;;
65375;SDS011;51976;47.332;9.404;2023-05-07T00:30:45;2.47;;;1.02;;
65375;SDS011;51976;47.332;9.404;2023-05-07T00:33:10;1.92;;;1.10;;
65375;SDS011;51976;47.332;9.404;2023-05-07T00:35:36;1.77;;;1.25;;
65375;SDS011;51976;47.332;9.404;2023-05-07T00:38:01;2.58;;;1.02;;
65375;SDS011;51976;47.332;9.404;2023-05-07T00:40:26;2.00;;;1.10;;
65375;SDS011;51976;47.332;9.404;2023-05-07T00:42:52;1.85;;;1.00;;
65375;SDS011;51976;47.332;9.404;2023-05-07T00:45:21;1.75;;;0.98;;
65375;SDS011;51976;47.332;9.404;2023-05-07T00:47:50;2.45;;;1.33;;
65375;SDS011;51976;47.332;9.404;2023-05-07T00:50:16;2.30;;;1.20;;
65375;SDS011;51976;47.332;9.404;2023-05-07T00:52:42;2.85;;;0.90;;
65375;SDS011;51976;47.332;9.404;2023-05-07T00:55:07;3.25;;;1.10;;
65375;SDS011;51976;47.332;9.404;2023-05-07T00:57:35;1.52;;;0.90;;
65375;SDS011;51976;47.332;9.404;2023-05-07T01:00:03;3.63;;;1.00;;
65375;SDS011;51976;47.332;9.404;2023-05-07T01:02:29;2.00;;;1.42;;
65375;SDS011;51976;47.332;9.404;2023-05-07T01:04:55;2.33;;;1.35;;
65375;SDS011;51976;47.332;9.404;2023-05-07T01:07:21;3.40;;;1.30;;
65375;SDS011;51976;47.332;9.404;2023-05-07T01:09:48;4.15;;;1.10;;
65375;SDS011;51976;47.332;9.404;2023-05-07T01:12:14;4.07;;;1.40;;
65375;SDS011;51976;47.332;9.404;2023-05-07T01:14:40;5.13;;;1.30;;
65375;SDS011;51976;47.332;9.404;2023-05-07T01:17:06;1.63;;;1.10;;
65375;SDS011;51976;47.332;9.404;2023-05-07T01:19:31;1.95;;;1.10;;
65375;SDS011;51976;47.332;9.404;2023-05-07T01:22:00;6.43;;;1.45;;
65375;SDS011;51976;47.332;9.404;2023-05-07T01:24:28;5.28;;;1.40;;
65375;SDS011;51976;47.332;9.404;2023-05-07T01:26:55;4.97;;;1.20;;
65375;SDS011;51976;47.332;9.404;2023-05-07T01:29:20;3.03;;;1.33;;
65375;SDS011;51976;47.332;9.404;2023-05-07T01:31:45;1.77;;;1.27;;
65375;SDS011;51976;47.332;9.404;2023-05-07T01:34:12;2.95;;;1.48;;
65375;SDS011;51976;47.332;9.404;2023-05-07T01:36:40;2.42;;;1.17;;
65375;SDS011;51976;47.332;9.404;2023-05-07T01:39:07;1.27;;;0.93;;
65375;SDS011;51976;47.332;9.404;2023-05-07T01:41:34;4.20;;;1.00;;
65375;SDS011;51976;47.332;9.404;2023-05-07T01:44:00;1.52;;;0.95;;
65375;SDS011;51976;47.332;9.404;2023-05-07T01:46:28;4.53;;;1.20;;
65375;SDS011;51976;47.332;9.404;2023-05-07T01:48:54;1.58;;;1.08;;
65375;SDS011;51976;47.332;9.404;2023-05-07T01:51:20;3.65;;;1.10;;
65375;SDS011;51976;47.332;9.404;2023-05-07T01:53:47;3.25;;;1.27;;
65375;SDS011;51976;47.332;9.404;2023-05-07T01:56:15;2.75;;;1.17;;
65375;SDS011;51976;47.332;9.404;2023-05-07T01:58:42;1.38;;;1.00;;
65375;SDS011;51976;47.332;9.404;2023-05-07T02:01:07;2.13;;;1.10;;
65375;SDS011;51976;47.332;9.404;2023-05-07T02:03:33;1.67;;;1.05;;
65375;SDS011;51976;47.332;9.404;2023-05-07T02:05:58;2.85;;;1.15;;
65375;SDS011;51976;47.332;9.404;2023-05-07T02:08:23;2.35;;;1.05;;
65375;SDS011;51976;47.332;9.404;2023-05-07T02:10:49;5.78;;;1.38;;
65375;SDS011;51976;47.332;9.404;2023-05-07T02:13:16;1.30;;;0.80;;
65375;SDS011;51976;47.332;9.404;2023-05-07T02:15:41;3.50;;;1.23;;
65375;SDS011;51976;47.332;9.404;2023-05-07T02:18:07;2.50;;;0.90;;
65375;SDS011;51976;47.332;9.404;2023-05-07T02:20:34;2.97;;;1.00;;
65375;SDS011;51976;47.332;9.404;2023-05-07T02:22:59;2.22;;;0.93;;
65375;SDS011;51976;47.332;9.404;2023-05-07T02:25:25;2.30;;;1.20;;
65375;SDS011;51976;47.332;9.404;2023-05-07T02:27:50;2.90;;;1.10;;
65375;SDS011;51976;47.332;9.404;2023-05-07T02:30:16;1.90;;;1.05;;
65375;SDS011;51976;47.332;9.404;2023-05-07T02:32:41;1.30;;;0.70;;
65375;SDS011;51976;47.332;9.404;2023-05-07T02:35:07;3.15;;;1.05;;
65375;SDS011;51976;47.332;9.404;2023-05-07T02:37:32;1.30;;;0.98;;
65375;SDS011;51976;47.332;9.404;2023-05-07T02:39:58;2.70;;;1.00;;
65375;SDS011;51976;47.332;9.404;2023-05-07T02:42:23;2.25;;;0.80;;
65375;SDS011;51976;47.332;9.404;2023-05-07T02:44:49;1.48;;;1.00;;
65375;SDS011;51976;47.332;9.404;2023-05-07T02:47:14;2.63;;;0.90;;
65375;SDS011;51976;47.332;9.404;2023-05-07T02:49:40;1.20;;;0.80;;
65375;SDS011;51976;47.332;9.404;2023-05-07T02:52:06;1.10;;;0.73;;
65375;SDS011;51976;47.332;9.404;2023-05-07T02:54:31;1.80;;;1.00;;
65375;SDS011;51976;47.332;9.404;2023-05-07T02:56:57;1.85;;;0.85;;
65375;SDS011;51976;47.332;9.404;2023-05-07T02:59:23;2.08;;;0.90;;
65375;SDS011;51976;47.332;9.404;2023-05-07T03:01:50;2.53;;;0.95;;
65375;SDS011;51976;47.332;9.404;2023-05-07T03:04:15;1.80;;;1.00;;
65375;SDS011;51976;47.332;9.404;2023-05-07T03:06:40;1.45;;;0.70;;
65375;SDS011;51976;47.332;9.404;2023-05-07T03:09:06;3.92;;;1.00;;
65375;SDS011;51976;47.332;9.404;2023-05-07T03:11:32;1.58;;;0.80;;
65375;SDS011;51976;47.332;9.404;2023-05-07T03:13:57;3.00;;;0.80;;
65375;SDS011;51976;47.332;9.404;2023-05-07T03:16:22;2.10;;;0.93;;
65375;SDS011;51976;47.332;9.404;2023-05-07T03:18:48;1.23;;;0.80;;
65375;SDS011;51976;47.332;9.404;2023-05-07T03:21:13;1.80;;;0.70;;
65375;SDS011;51976;47.332;9.404;2023-05-07T03:23:38;3.65;;;0.85;;
65375;SDS011;51976;47.332;9.404;2023-05-07T03:26:04;1.58;;;0.95;;
65375;SDS011;51976;47.332;9.404;2023-05-07T03:28:29;3.47;;;0.90;;
65375;SDS011;51976;47.332;9.404;2023-05-07T03:30:55;3.42;;;0.77;;
65375;SDS011;51976;47.332;9.404;2023-05-07T03:33:20;1.48;;;0.88;;
65375;SDS011;51976;47.332;9.404;2023-05-07T03:35:46;1.73;;;1.10;;
65375;SDS011;51976;47.332;9.404;2023-05-07T03:38:11;1.17;;;0.80;;
65375;SDS011;51976;47.332;9.404;2023-05-07T03:40:36;4.53;;;0.88;;
65375;SDS011;51976;47.332;9.404;2023-05-07T03:43:02;2.45;;;0.80;;
65375;SDS011;51976;47.332;9.404;2023-05-07T03:45:27;1.50;;;1.00;;
65375;SDS011;51976;47.332;9.404;2023-05-07T03:47:52;2.78;;;1.17;;
65375;SDS011;51976;47.332;9.404;2023-05-07T03:50:18;2.47;;;1.00;;
65375;SDS011;51976;47.332;9.404;2023-05-07T03:52:43;2.92;;;0.98;;
65375;SDS011;51976;47.332;9.404;2023-05-07T03:55:09;2.15;;;1.00;;
65375;SDS011;51976;47.332;9.404;2023-05-07T03:57:34;2.70;;;0.85;;
65375;SDS011;51976;47.332;9.404;2023-05-07T04:00:00;1.70;;;1.00;;
65375;SDS011;51976;47.332;9.404;2023-05-07T04:02:25;2.50;;;1.13;;
65375;SDS011;51976;47.332;9.404;2023-05-07T04:04:51;3.65;;;1.17;;
65375;SDS011;51976;47.332;9.404;2023-05-07T04:07:16;3.92;;;1.05;;
65375;SDS011;51976;47.332;9.404;2023-05-07T04:09:42;3.38;;;1.20;;
65375;SDS011;51976;47.332;9.404;2023-05-07T04:12:07;2.60;;;1.35;;
65375;SDS011;51976;47.332;9.404;2023-05-07T04:14:33;3.58;;;1.20;;
65375;SDS011;51976;47.332;9.404;2023-05-07T04:16:58;2.30;;;1.30;;
65375;SDS011;51976;47.332;9.404;2023-05-07T04:19:24;2.38;;;1.60;;
65375;SDS011;51976;47.332;9.404;2023-05-07T04:21:50;3.13;;;1.30;;
65375;SDS011;51976;47.332;9.404;2023-05-07T04:24:15;4.97;;;1.30;;
65375;SDS011;51976;47.332;9.404;2023-05-07T04:26:41;2.20;;;1.00;;
65375;SDS011;51976;47.332;9.404;2023-05-07T04:29:06;7.22;;;1.40;;
65375;SDS011;51976;47.332;9.404;2023-05-07T04:31:31;1.50;;;1.15;;
65375;SDS011;51976;47.332;9.404;2023-05-07T04:33:57;2.05;;;1.20;;
65375;SDS011;51976;47.332;9.404;2023-05-07T04:36:22;3.17;;;1.25;;
65375;SDS011;51976;47.332;9.404;2023-05-07T04:38:49;4.50;;;1.20;;
65375;SDS011;51976;47.332;9.404;2023-05-07T04:41:14;4.53;;;1.70;;
65375;SDS011;51976;47.332;9.404;2023-05-07T04:43:41;4.95;;;1.38;;
65375;SDS011;51976;47.332;9.404;2023-05-07T04:46:07;1.58;;;1.05;;
65375;SDS011;51976;47.332;9.404;2023-05-07T04:48:33;2.10;;;1.30;;
65375;SDS011;51976;47.332;9.404;2023-05-07T04:50:58;3.03;;;1.50;;
65375;SDS011;51976;47.332;9.404;2023-05-07T04:53:24;1.60;;;1.10;;
65375;SDS011;51976;47.332;9.404;2023-05-07T04:55:54;3.50;;;1.30;;
65375;SDS011;51976;47.332;9.404;2023-05-07T04:58:20;2.10;;;1.33;;
65375;SDS011;51976;47.332;9.404;2023-05-07T05:00:46;1.67;;;1.00;;
65375;SDS011;51976;47.332;9.404;2023-05-07T05:03:11;2.35;;;1.48;;
65375;SDS011;51976;47.332;9.404;2023-05-07T05:05:37;3.35;;;1.30;;
65375;SDS011;51976;47.332;9.404;2023-05-07T05:08:03;2.67;;;1.40;;
65375;SDS011;51976;47.332;9.404;2023-05-07T05:10:28;2.70;;;1.70;;
65375;SDS011;51976;47.332;9.404;2023-05-07T05:12:53;3.97;;;1.50;;
65375;SDS011;51976;47.332;9.404;2023-05-07T05:15:19;1.98;;;1.15;;
65375;SDS011;51976;47.332;9.404;2023-05-07T05:17:44;2.10;;;1.08;;
65375;SDS011;51976;47.332;9.404;2023-05-07T05:20:10;2.45;;;1.08;;
65375;SDS011;51976;47.332;9.404;2023-05-07T05:22:36;4.00;;;1.00;;
65375;SDS011;51976;47.332;9.404;2023-05-07T05:25:02;1.83;;;1.10;;
65375;SDS011;51976;47.332;9.404;2023-05-07T05:27:28;2.30;;;1.30;;
65375;SDS011;51976;47.332;9.404;2023-05-07T05:29:53;2.50;;;1.20;;
65375;SDS011;51976;47.332;9.404;2023-05-07T05:32:19;2.33;;;1.45;;
65375;SDS011;51976;47.332;9.404;2023-05-07T05:34:44;3.25;;;1.65;;
65375;SDS011;51976;47.332;9.404;2023-05-07T05:37:10;1.95;;;1.40;;
65375;SDS011;51976;47.332;9.404;2023-05-07T05:39:35;2.53;;;1.55;;
65375;SDS011;51976;47.332;9.404;2023-05-07T05:42:01;2.47;;;1.40;;
65375;SDS011;51976;47.332;9.404;2023-05-07T05:44:26;5.95;;;1.90;;
65375;SDS011;51976;47.332;9.404;2023-05-07T05:46:52;4.93;;;1.52;;
65375;SDS011;51976;47.332;9.404;2023-05-07T05:49:20;2.38;;;1.33;;
65375;SDS011;51976;47.332;9.404;2023-05-07T05:51:45;2.58;;;1.15;;
65375;SDS011;51976;47.332;9.404;2023-05-07T05:54:11;2.35;;;1.20;;
65375;SDS011;51976;47.332;9.404;2023-05-07T05:56:36;4.82;;;1.40;;
65375;SDS011;51976;47.332;9.404;2023-05-07T05:59:02;4.05;;;1.70;;
65375;SDS011;51976;47.332;9.404;2023-05-07T06:01:27;2.47;;;1.33;;
65375;SDS011;51976;47.332;9.404;2023-05-07T06:03:53;2.55;;;1.60;;
65375;SDS011;51976;47.332;9.404;2023-05-07T06:06:18;3.30;;;1.77;;
65375;SDS011;51976;47.332;9.404;2023-05-07T06:08:44;3.88;;;1.98;;
65375;SDS011;51976;47.332;9.404;2023-05-07T06:11:09;3.90;;;1.38;;
65375;SDS011;51976;47.332;9.404;2023-05-07T06:13:35;2.40;;;1.58;;
65375;SDS011;51976;47.332;9.404;2023-05-07T06:16:00;2.92;;;1.50;;
65375;SDS011;51976;47.332;9.404;2023-05-07T06:18:25;2.28;;;1.05;;
65375;SDS011;51976;47.332;9.404;2023-05-07T06:20:51;3.38;;;1.02;;
65375;SDS011;51976;47.332;9.404;2023-05-07T06:23:17;2.08;;;1.00;;
65375;SDS011;51976;47.332;9.404;2023-05-07T06:25:48;1.85;;;1.10;;
65375;SDS011;51976;47.332;9.404;2023-05-07T06:28:15;1.85;;;1.00;;
65375;SDS011;51976;47.332;9.404;2023-05-07T06:30:40;2.45;;;1.20;;
65375;SDS011;51976;47.332;9.404;2023-05-07T06:33:06;4.13;;;1.30;;
65375;SDS011;51976;47.332;9.404;2023-05-07T06:35:31;4.43;;;1.10;;
65375;SDS011;51976;47.332;9.404;2023-05-07T06:37:56;3.35;;;1.10;;
65375;SDS011;51976;47.332;9.404;2023-05-07T06:40:22;1.50;;;1.00;;
65375;SDS011;51976;47.332;9.404;2023-05-07T06:42:47;3.92;;;0.80;;
65375;SDS011;51976;47.332;9.404;2023-05-07T06:45:12;1.52;;;0.90;;
65375;SDS011;51976;47.332;9.404;2023-05-07T06:47:38;2.35;;;1.20;;
65375;SDS011;51976;47.332;9.404;2023-05-07T06:50:03;1.98;;;0.82;;
65375;SDS011;51976;47.332;9.404;2023-05-07T06:52:29;3.83;;;0.90;;
65375;SDS011;51976;47.332;9.404;2023-05-07T06:54:54;1.52;;;1.00;;
65375;SDS011;51976;47.332;9.404;2023-05-07T06:57:20;2.53;;;0.80;;
65375;SDS011;51976;47.332;9.404;2023-05-07T06:59:45;2.28;;;0.70;;
65375;SDS011;51976;47.332;9.404;2023-05-07T07:02:11;2.03;;;1.00;;
65375;SDS011;51976;47.332;9.404;2023-05-07T07:04:36;1.48;;;1.05;;
65375;SDS011;51976;47.332;9.404;2023-05-07T07:07:01;3.83;;;0.77;;
65375;SDS011;51976;47.332;9.404;2023-05-07T07:09:27;1.13;;;0.80;;
65375;SDS011;51976;47.332;9.404;2023-05-07T07:11:52;2.72;;;0.98;;
65375;SDS011;51976;47.332;9.404;2023-05-07T07:14:17;5.10;;;0.90;;
65375;SDS011;51976;47.332;9.404;2023-05-07T07:16:43;2.08;;;0.80;;
65375;SDS011;51976;47.332;9.404;2023-05-07T07:19:08;1.42;;;0.60;;
65375;SDS011;51976;47.332;9.404;2023-05-07T07:21:34;2.42;;;0.77;;
65375;SDS011;51976;47.332;9.404;2023-05-07T07:23:59;1.70;;;0.70;;
65375;SDS011;51976;47.332;9.404;2023-05-07T07:26:25;1.40;;;1.00;;
65375;SDS011;51976;47.332;9.404;2023-05-07T07:28:50;1.75;;;0.80;;
65375;SDS011;51976;47.332;9.404;2023-05-07T07:31:16;1.20;;;0.93;;
65375;SDS011;51976;47.332;9.404;2023-05-07T07:33:41;1.50;;;0.95;;
65375;SDS011;51976;47.332;9.404;2023-05-07T07:36:07;2.55;;;0.82;;
65375;SDS011;51976;47.332;9.404;2023-05-07T07:38:33;4.47;;;1.10;;
65375;SDS011;51976;47.332;9.404;2023-05-07T07:40:59;1.42;;;0.90;;
65375;SDS011;51976;47.332;9.404;2023-05-07T07:43:25;3.05;;;1.10;;
65375;SDS011;51976;47.332;9.404;2023-05-07T07:45:51;2.13;;;1.25;;
65375;SDS011;51976;47.332;9.404;2023-05-07T07:48:16;2.75;;;1.38;;
65375;SDS011;51976;47.332;9.404;2023-05-07T07:50:41;5.03;;;1.70;;
65375;SDS011;51976;47.332;9.404;2023-05-07T07:53:07;2.33;;;1.20;;
65375;SDS011;51976;47.332;9.404;2023-05-07T07:55:32;1.70;;;1.00;;
65375;SDS011;51976;47.332;9.404;2023-05-07T07:58:03;3.22;;;1.60;;
65375;SDS011;51976;47.332;9.404;2023-05-07T08:00:28;1.45;;;1.08;;
65375;SDS011;51976;47.332;9.404;2023-05-07T08:02:54;1.80;;;1.20;;
65375;SDS011;51976;47.332;9.404;2023-05-07T08:05:19;1.98;;;1.27;;
65375;SDS011;51976;47.332;9.404;2023-05-07T08:07:45;2.63;;;1.00;;
65375;SDS011;51976;47.332;9.404;2023-05-07T08:10:11;2.00;;;0.90;;
65375;SDS011;51976;47.332;9.404;2023-05-07T08:12:36;3.22;;;0.80;;
65375;SDS011;51976;47.332;9.404;2023-05-07T08:15:02;2.75;;;1.00;;
65375;SDS011;51976;47.332;9.404;2023-05-07T08:17:27;4.75;;;1.00;;
65375;SDS011;51976;47.332;9.404;2023-05-07T08:19:53;1.63;;;1.00;;
65375;SDS011;51976;47.332;9.404;2023-05-07T08:22:18;3.60;;;0.85;;
65375;SDS011;51976;47.332;9.404;2023-05-07T08:24:44;2.42;;;0.90;;
65375;SDS011;51976;47.332;9.404;2023-05-07T08:27:09;1.35;;;0.80;;
65375;SDS011;51976;47.332;9.404;2023-05-07T08:29:35;1.05;;;0.80;;
65375;SDS011;51976;47.332;9.404;2023-05-07T08:32:00;3.47;;;0.88;;
65375;SDS011;51976;47.332;9.404;2023-05-07T08:34:26;5.22;;;1.00;;
65375;SDS011;51976;47.332;9.404;2023-05-07T08:36:51;1.90;;;1.05;;
65375;SDS011;51976;47.332;9.404;2023-05-07T08:39:16;3.08;;;1.08;;
65375;SDS011;51976;47.332;9.404;2023-05-07T08:41:44;1.67;;;0.90;;
65375;SDS011;51976;47.332;9.404;2023-05-07T08:44:13;1.60;;;1.10;;
65375;SDS011;51976;47.332;9.404;2023-05-07T08:46:39;3.40;;;1.15;;
65375;SDS011;51976;47.332;9.404;2023-05-07T08:49:07;2.58;;;1.20;;
65375;SDS011;51976;47.332;9.404;2023-05-07T08:51:32;2.42;;;1.20;;
65375;SDS011;51976;47.332;9.404;2023-05-07T08:53:58;3.63;;;2.38;;
65375;SDS011;51976;47.332;9.404;2023-05-07T08:56:26;2.45;;;1.50;;
65375;SDS011;51976;47.332;9.404;2023-05-07T08:58:51;3.40;;;1.15;;
65375;SDS011;51976;47.332;9.404;2023-05-07T09:01:21;2.17;;;1.15;;
65375;SDS011;51976;47.332;9.404;2023-05-07T09:03:46;1.80;;;1.33;;
65375;SDS011;51976;47.332;9.404;2023-05-07T09:06:12;3.28;;;1.45;;
65375;SDS011;51976;47.332;9.404;2023-05-07T09:08:38;3.67;;;1.50;;
65375;SDS011;51976;47.332;9.404;2023-05-07T09:11:03;3.97;;;1.40;;
65375;SDS011;51976;47.332;9.404;2023-05-07T09:13:29;2.55;;;1.50;;
65375;SDS011;51976;47.332;9.404;2023-05-07T09:15:54;2.95;;;1.50;;
65375;SDS011;51976;47.332;9.404;2023-05-07T09:18:21;3.58;;;1.20;;
65375;SDS011;51976;47.332;9.404;2023-05-07T09:20:48;3.15;;;1.35;;
65375;SDS011;51976;47.332;9.404;2023-05-07T09:23:13;3.28;;;1.38;;
65375;SDS011;51976;47.332;9.404;2023-05-07T09:25:39;2.38;;;1.38;;
65375;SDS011;51976;47.332;9.404;2023-05-07T09:28:04;3.13;;;1.10;;
65375;SDS011;51976;47.332;9.404;2023-05-07T09:30:34;5.43;;;1.30;;
65375;SDS011;51976;47.332;9.404;2023-05-07T09:33:00;5.47;;;1.10;;
65375;SDS011;51976;47.332;9.404;2023-05-07T09:35:27;4.47;;;1.17;;
65375;SDS011;51976;47.332;9.404;2023-05-07T09:37:53;3.35;;;1.20;;
65375;SDS011;51976;47.332;9.404;2023-05-07T09:40:21;1.70;;;1.15;;
65375;SDS011;51976;47.332;9.404;2023-05-07T09:42:48;3.22;;;1.20;;
65375;SDS011;51976;47.332;9.404;2023-05-07T09:45:14;2.30;;;1.23;;
65375;SDS011;51976;47.332;9.404;2023-05-07T09:47:40;1.95;;;1.05;;
65375;SDS011;51976;47.332;9.404;2023-05-07T09:50:09;4.22;;;1.30;;
65375;SDS011;51976;47.332;9.404;2023-05-07T09:52:35;1.88;;;1.00;;
65375;SDS011;51976;47.332;9.404;2023-05-07T09:55:01;1.70;;;1.00;;
65375;SDS011;51976;47.332;9.404;2023-05-07T09:57:28;1.98;;;1.30;;
65375;SDS011;51976;47.332;9.404;2023-05-07T09:59:55;3.40;;;1.00;;
65375;SDS011;51976;47.332;9.404;2023-05-07T10:02:23;1.23;;;1.00;;
65375;SDS011;51976;47.332;9.404;2023-05-07T10:04:50;1.67;;;1.20;;
65375;SDS011;51976;47.332;9.404;2023-05-07T10:07:16;8.77;;;1.35;;
65375;SDS011;51976;47.332;9.404;2023-05-07T10:09:42;1.92;;;1.02;;
65375;SDS011;51976;47.332;9.404;2023-05-07T10:12:09;1.92;;;0.88;;
65375;SDS011;51976;47.332;9.404;2023-05-07T10:14:35;1.83;;;0.85;;
65375;SDS011;51976;47.332;9.404;2023-05-07T10:17:02;1.38;;;0.82;;
65375;SDS011;51976;47.332;9.404;2023-05-07T10:19:27;3.47;;;0.80;;
65375;SDS011;51976;47.332;9.404;2023-05-07T10:21:55;2.05;;;0.77;;
65375;SDS011;51976;47.332;9.404;2023-05-07T10:24:25;1.02;;;0.70;;
65375;SDS011;51976;47.332;9.404;2023-05-07T10:26:52;6.93;;;0.95;;
65375;SDS011;51976;47.332;9.404;2023-05-07T10:29:29;1.35;;;1.02;;
65375;SDS011;51976;47.332;9.404;2023-05-07T10:37:25;1.85;;;0.90;;
65375;SDS011;51976;47.332;9.404;2023-05-07T10:39:51;2.03;;;1.40;;
65375;SDS011;51976;47.332;9.404;2023-05-07T10:42:17;3.03;;;1.17;;
65375;SDS011;51976;47.332;9.404;2023-05-07T10:44:42;1.40;;;0.80;;
65375;SDS011;51976;47.332;9.404;2023-05-07T10:47:08;1.63;;;0.80;;
65375;SDS011;51976;47.332;9.404;2023-05-07T10:52:43;4.80;;;1.00;;
65375;SDS011;51976;47.332;9.404;2023-05-07T10:55:19;5.53;;;1.00;;
65375;SDS011;51976;47.332;9.404;2023-05-07T10:57:50;2.53;;;1.17;;
65375;SDS011;51976;47.332;9.404;2023-05-07T11:00:40;1.65;;;0.85;;
65375;SDS011;51976;47.332;9.404;2023-05-07T11:03:06;2.22;;;1.10;;
65375;SDS011;51976;47.332;9.404;2023-05-07T11:05:32;2.03;;;1.00;;
65375;SDS011;51976;47.332;9.404;2023-05-07T11:07:58;1.50;;;0.70;;
65375;SDS011;51976;47.332;9.404;2023-05-07T11:10:54;2.00;;;0.90;;
65375;SDS011;51976;47.332;9.404;2023-05-07T11:13:18;1.20;;;0.75;;
65375;SDS011;51976;47.332;9.404;2023-05-07T11:16:03;1.67;;;0.90;;
65375;SDS011;51976;47.332;9.404;2023-05-07T11:18:45;1.85;;;0.85;;
65375;SDS011;51976;47.332;9.404;2023-05-07T11:23:57;2.28;;;0.80;;
65375;SDS011;51976;47.332;9.404;2023-05-07T11:26:23;1.13;;;0.65;;
65375;SDS011;51976;47.332;9.404;2023-05-07T11:28:50;1.13;;;0.70;;
65375;SDS011;51976;47.332;9.404;2023-05-07T11:31:19;1.00;;;0.73;;
65375;SDS011;51976;47.332;9.404;2023-05-07T11:33:47;1.77;;;0.80;;
65375;SDS011;51976;47.332;9.404;2023-05-07T11:36:12;2.55;;;0.90;;
65375;SDS011;51976;47.332;9.404;2023-05-07T11:38:38;2.45;;;0.80;;
65375;SDS011;51976;47.332;9.404;2023-05-07T11:41:03;1.27;;;0.93;;
65375;SDS011;51976;47.332;9.404;2023-05-07T11:43:30;1.85;;;0.70;;
65375;SDS011;51976;47.332;9.404;2023-05-07T11:46:07;1.88;;;0.73;;
65375;SDS011;51976;47.332;9.404;2023-05-07T11:48:34;1.98;;;0.80;;
65375;SDS011;51976;47.332;9.404;2023-05-07T11:51:01;2.00;;;0.80;;
65375;SDS011;51976;47.332;9.404;2023-05-07T11:53:34;2.17;;;0.90;;
65375;SDS011;51976;47.332;9.404;2023-05-07T11:56:02;3.03;;;0.88;;
65375;SDS011;51976;47.332;9.404;2023-05-07T11:58:31;1.63;;;0.70;;
65375;SDS011;51976;47.332;9.404;2023-05-07T12:00:56;1.52;;;0.70;;
65375;SDS011;51976;47.332;9.404;2023-05-07T12:03:22;1.48;;;0.80;;
65375;SDS011;51976;47.332;9.404;2023-05-07T12:05:47;1.88;;;0.80;;
65375;SDS011;51976;47.332;9.404;2023-05-07T12:08:16;1.45;;;0.88;;
65375;SDS011;51976;47.332;9.404;2023-05-07T12:10:43;1.63;;;0.77;;
65375;SDS011;51976;47.332;9.404;2023-05-07T12:13:18;1.27;;;0.90;;
65375;SDS011;51976;47.332;9.404;2023-05-07T12:15:45;2.13;;;1.27;;
65375;SDS011;51976;47.332;9.404;2023-05-07T12:18:11;3.88;;;1.08;;
65375;SDS011;51976;47.332;9.404;2023-05-07T12:20:37;2.95;;;0.88;;
65375;SDS011;51976;47.332;9.404;2023-05-07T12:23:03;1.27;;;0.70;;
65375;SDS011;51976;47.332;9.404;2023-05-07T12:25:30;2.92;;;0.98;;
65375;SDS011;51976;47.332;9.404;2023-05-07T12:27:56;1.23;;;0.70;;
65375;SDS011;51976;47.332;9.404;2023-05-07T12:30:23;1.67;;;0.75;;
65375;SDS011;51976;47.332;9.404;2023-05-07T12:32:52;4.25;;;1.00;;
65375;SDS011;51976;47.332;9.404;2023-05-07T12:35:26;2.22;;;0.80;;
65375;SDS011;51976;47.332;9.404;2023-05-07T12:37:57;2.13;;;0.55;;
65375;SDS011;51976;47.332;9.404;2023-05-07T12:40:29;1.88;;;0.77;;
65375;SDS011;51976;47.332;9.404;2023-05-07T12:43:01;2.75;;;0.68;;
65375;SDS011;51976;47.332;9.404;2023-05-07T12:45:26;3.35;;;0.70;;
65375;SDS011;51976;47.332;9.404;2023-05-07T12:47:51;3.38;;;0.80;;
65375;SDS011;51976;47.332;9.404;2023-05-07T12:50:17;1.13;;;0.70;;
65375;SDS011;51976;47.332;9.404;2023-05-07T12:52:43;1.20;;;0.70;;
65375;SDS011;51976;47.332;9.404;2023-05-07T12:55:13;1.52;;;0.70;;
65375;SDS011;51976;47.332;9.404;2023-05-07T12:57:41;2.20;;;0.75;;
65375;SDS011;51976;47.332;9.404;2023-05-07T13:00:08;3.25;;;1.00;;
65375;SDS011;51976;47.332;9.404;2023-05-07T13:02:36;2.67;;;0.90;;
65375;SDS011;51976;47.332;9.404;2023-05-07T13:05:03;3.83;;;1.35;;
65375;SDS011;51976;47.332;9.404;2023-05-07T13:07:29;2.78;;;1.40;;
65375;SDS011;51976;47.332;9.404;2023-05-07T13:09:54;6.68;;;1.80;;
65375;SDS011;51976;47.332;9.404;2023-05-07T13:12:20;1.65;;;1.25;;
65375;SDS011;51976;47.332;9.404;2023-05-07T13:14:45;2.33;;;1.48;;
65375;SDS011;51976;47.332;9.404;2023-05-07T13:17:11;1.80;;;1.13;;
65375;SDS011;51976;47.332;9.404;2023-05-07T13:19:36;2.22;;;1.13;;
65375;SDS011;51976;47.332;9.404;2023-05-07T13:22:02;3.15;;;1.38;;
65375;SDS011;51976;47.332;9.404;2023-05-07T13:24:28;2.67;;;1.42;;
65375;SDS011;51976;47.332;9.404;2023-05-07T13:26:53;1.50;;;1.30;;
65375;SDS011;51976;47.332;9.404;2023-05-07T13:29:19;4.88;;;1.20;;
65375;SDS011;51976;47.332;9.404;2023-05-07T13:31:44;3.83;;;1.10;;
65375;SDS011;51976;47.332;9.404;2023-05-07T13:34:10;1.70;;;1.30;;
65375;SDS011;51976;47.332;9.404;2023-05-07T13:36:35;1.95;;;1.17;;
65375;SDS011;51976;47.332;9.404;2023-05-07T13:39:04;2.55;;;1.50;;
65375;SDS011;51976;47.332;9.404;2023-05-07T13:41:29;1.90;;;1.27;;
65375;SDS011;51976;47.332;9.404;2023-05-07T13:43:55;2.03;;;1.40;;
65375;SDS011;51976;47.332;9.404;2023-05-07T13:46:21;2.78;;;1.50;;
65375;SDS011;51976;47.332;9.404;2023-05-07T13:48:46;3.60;;;1.25;;
65375;SDS011;51976;47.332;9.404;2023-05-07T13:51:12;1.60;;;1.20;;
65375;SDS011;51976;47.332;9.404;2023-05-07T13:53:37;3.30;;;1.48;;
65375;SDS011;51976;47.332;9.404;2023-05-07T13:56:03;4.30;;;1.90;;
65375;SDS011;51976;47.332;9.404;2023-05-07T13:58:29;4.70;;;2.25;;
65375;SDS011;51976;47.332;9.404;2023-05-07T14:00:55;3.15;;;1.60;;
65375;SDS011;51976;47.332;9.404;2023-05-07T14:03:20;2.92;;;1.38;;
65375;SDS011;51976;47.332;9.404;2023-05-07T14:05:45;2.30;;;1.40;;
65375;SDS011;51976;47.332;9.404;2023-05-07T14:08:11;1.98;;;1.33;;
65375;SDS011;51976;47.332;9.404;2023-05-07T14:10:38;3.03;;;1.30;;
65375;SDS011;51976;47.332;9.404;2023-05-07T14:13:04;3.03;;;1.48;;
65375;SDS011;51976;47.332;9.404;2023-05-07T14:15:30;3.25;;;1.70;;
65375;SDS011;51976;47.332;9.404;2023-05-07T14:17:57;2.80;;;1.40;;
65375;SDS011;51976;47.332;9.404;2023-05-07T14:20:23;2.10;;;1.30;;
65375;SDS011;51976;47.332;9.404;2023-05-07T14:22:49;2.80;;;1.63;;
65375;SDS011;51976;47.332;9.404;2023-05-07T14:25:15;4.35;;;1.50;;
65375;SDS011;51976;47.332;9.404;2023-05-07T14:27:40;2.95;;;1.60;;
65375;SDS011;51976;47.332;9.404;2023-05-07T14:30:06;2.45;;;2.00;;
65375;SDS011;51976;47.332;9.404;2023-05-07T14:32:32;5.22;;;1.80;;
65375;SDS011;51976;47.332;9.404;2023-05-07T14:34:58;5.10;;;1.92;;
65375;SDS011;51976;47.332;9.404;2023-05-07T14:37:23;4.60;;;2.00;;
65375;SDS011;51976;47.332;9.404;2023-05-07T14:39:49;7.20;;;2.10;;
65375;SDS011;51976;47.332;9.404;2023-05-07T14:42:14;5.40;;;2.20;;
65375;SDS011;51976;47.332;9.404;2023-05-07T14:44:40;4.43;;;2.13;;
65375;SDS011;51976;47.332;9.404;2023-05-07T14:47:06;7.53;;;2.35;;
65375;SDS011;51976;47.332;9.404;2023-05-07T14:49:32;3.50;;;2.40;;
65375;SDS011;51976;47.332;9.404;2023-05-07T14:51:58;3.67;;;2.22;;
65375;SDS011;51976;47.332;9.404;2023-05-07T14:54:25;4.70;;;2.45;;